Weather at Oaks Helistop [CLOSED]

Public forecast

Using degrees Fahrenheit for public forecast. Weather courtesy of forecast.io.

Closest aviation weather report (METAR) to Oaks Helistop

Closest report is Venice Municipal Airport, 8.5 nm (15.7 km) SSE. Retrieved 2020/11/30 16:35 UTC (0 seconds ago):

KVNC 301635Z AUTO 33014KT 7SM SCT020 OVC027 23/19 A2993 RMK AO2

Closest aviation forecast (TAF) to Oaks Helistop

Closest forecast is Sarasota Bradenton International Airport, 11.9 nm (22.0 km) NNW. Retrieved 2020/11/30 12:45 UTC (3 hours ago):

TAF KSRQ 301142Z 3012/0112 23014G21KT P6SM VCTS FEW015CB BKN025 TEMPO 3013/3017 VRB15G25KT 3SM TSRA SCT015CB OVC025 FM301800 30010G18KT P6SM SCT025 BKN050 FM302100 31013G20KT P6SM VCSH OVC040 FM010600 32012G19KT P6SM BKN100